createdAt,value
2022-12-01T00:01:37.498Z,3.29
2022-12-01T00:04:05.911Z,3.05
2022-12-01T00:06:35.933Z,3.00
2022-12-01T00:09:22.522Z,2.97
2022-12-01T00:11:57.444Z,2.94
2022-12-01T00:14:26.574Z,2.88
2022-12-01T00:16:54.714Z,2.85
2022-12-01T00:19:26.154Z,2.83
2022-12-01T00:21:56.144Z,2.73
2022-12-01T00:24:25.403Z,2.53
2022-12-01T00:26:54.436Z,2.47
2022-12-01T00:29:23.770Z,2.36
2022-12-01T00:31:53.855Z,2.49
2022-12-01T00:34:24.451Z,2.43
2022-12-01T00:36:54.556Z,2.32
2022-12-01T00:39:22.652Z,2.30
2022-12-01T00:41:50.654Z,2.30
2022-12-01T00:44:18.653Z,2.16
2022-12-01T00:46:48.059Z,2.23
2022-12-01T00:49:19.061Z,2.16
2022-12-01T00:51:52.041Z,2.15
2022-12-01T00:54:23.121Z,2.16
2022-12-01T00:56:52.172Z,2.14
2022-12-01T00:59:24.091Z,2.02
2022-12-01T01:01:55.447Z,2.06
2022-12-01T01:04:25.728Z,1.98
2022-12-01T01:06:53.726Z,1.97
2022-12-01T01:09:21.735Z,1.78
2022-12-01T01:11:55.080Z,1.74
2022-12-01T01:14:24.925Z,1.56
2022-12-01T01:16:57.424Z,1.44
2022-12-01T01:19:25.399Z,1.44
2022-12-01T01:21:53.364Z,1.53
2022-12-01T01:24:22.360Z,1.46
2022-12-01T01:26:51.279Z,1.32
2022-12-01T01:29:20.259Z,1.25
2022-12-01T01:31:48.527Z,1.19
2022-12-01T01:34:18.838Z,1.20
2022-12-01T01:36:46.840Z,1.16
2022-12-01T01:39:15.940Z,1.13
2022-12-01T01:41:44.000Z,1.05
2022-12-01T01:44:54.543Z,1.08
2022-12-01T01:47:27.587Z,1.09
2022-12-01T01:50:06.652Z,1.09
2022-12-01T01:52:36.720Z,1.09
2022-12-01T01:55:04.988Z,1.12
2022-12-01T01:57:35.134Z,1.16
2022-12-01T02:03:47.341Z,1.28
2022-12-01T02:06:18.148Z,1.19
2022-12-01T02:08:46.152Z,1.16
2022-12-01T02:11:48.727Z,1.08
2022-12-01T02:14:35.189Z,1.08
2022-12-01T02:17:10.922Z,1.11
2022-12-01T02:20:03.863Z,1.03
2022-12-01T02:22:42.974Z,0.98
2022-12-01T02:25:21.656Z,0.95
2022-12-01T02:28:14.727Z,0.99
2022-12-01T02:30:46.496Z,1.01
2022-12-01T02:33:20.921Z,0.93
2022-12-01T02:35:53.565Z,1.13
2022-12-01T02:38:30.820Z,1.29
2022-12-01T02:41:06.871Z,1.32
2022-12-01T02:43:36.045Z,1.33
2022-12-01T02:46:12.325Z,1.30
2022-12-01T02:48:43.077Z,1.28
2022-12-01T02:51:15.477Z,1.09
2022-12-01T02:53:44.673Z,1.08
2022-12-01T02:56:16.127Z,0.95
2022-12-01T02:58:44.679Z,0.80
2022-12-01T03:01:50.912Z,0.85
2022-12-01T03:04:47.407Z,0.92
2022-12-01T03:07:33.248Z,0.81
2022-12-01T03:10:07.455Z,0.57
2022-12-01T03:12:42.602Z,0.52
2022-12-01T03:15:18.852Z,0.33
2022-12-01T03:17:55.079Z,0.22
2022-12-01T03:20:29.990Z,0.09
2022-12-01T03:23:02.313Z,0.08
2022-12-01T03:25:32.036Z,0.13
2022-12-01T03:28:22.162Z,-0.01
2022-12-01T03:30:53.824Z,-0.01
2022-12-01T03:33:28.606Z,0.08
2022-12-01T03:36:00.979Z,0.08
2022-12-01T03:38:30.699Z,0.20
2022-12-01T03:41:03.127Z,0.46
2022-12-01T03:43:35.527Z,0.58
2022-12-01T03:46:11.102Z,0.60
2022-12-01T03:48:41.557Z,0.60
2022-12-01T03:51:15.233Z,0.61
2022-12-01T03:53:52.397Z,0.63
2022-12-01T03:56:22.769Z,0.78
2022-12-01T03:58:56.379Z,0.92
2022-12-01T04:01:26.553Z,1.11
2022-12-01T04:03:55.998Z,1.88
2022-12-01T04:06:24.011Z,1.87
2022-12-01T04:08:52.062Z,1.84
2022-12-01T04:11:37.553Z,1.88
2022-12-01T04:14:05.556Z,2.02
2022-12-01T04:16:35.523Z,2.06
2022-12-01T04:19:08.344Z,1.89
2022-12-01T04:21:36.345Z,1.98
2022-12-01T04:24:44.553Z,1.79
2022-12-01T04:28:19.795Z,1.64
2022-12-01T04:31:12.514Z,1.40
2022-12-01T04:33:40.539Z,1.22
2022-12-01T04:36:11.481Z,1.19
2022-12-01T04:38:40.445Z,1.25
2022-12-01T04:41:11.534Z,1.26
2022-12-01T04:43:46.349Z,1.43
2022-12-01T04:46:19.405Z,1.46
2022-12-01T04:48:47.335Z,1.51
2022-12-01T04:51:17.891Z,1.43
2022-12-01T04:53:48.082Z,1.53
2022-12-01T04:56:20.062Z,1.32
2022-12-01T04:58:48.054Z,1.29
2022-12-01T05:01:18.191Z,1.29
2022-12-01T05:03:52.327Z,1.35
2022-12-01T05:06:23.554Z,1.40
2022-12-01T05:08:52.456Z,1.40
2022-12-01T05:11:21.506Z,1.33
2022-12-01T05:13:50.422Z,1.11
2022-12-01T05:16:21.783Z,0.91
2022-12-01T05:18:51.245Z,0.85
2022-12-01T05:21:18.402Z,0.91
2022-12-01T05:23:48.888Z,0.85
2022-12-01T05:26:17.945Z,0.77
2022-12-01T05:28:45.875Z,0.70
2022-12-01T05:31:13.921Z,0.68
2022-12-01T05:33:41.871Z,0.74
2022-12-01T05:36:10.627Z,0.80
2022-12-01T05:38:38.636Z,0.60
2022-12-01T05:41:08.112Z,0.58
2022-12-01T05:43:36.370Z,0.60
2022-12-01T05:46:04.486Z,0.53
2022-12-01T05:48:32.516Z,0.53
2022-12-01T05:51:01.553Z,0.64
2022-12-01T05:53:29.561Z,0.54
2022-12-01T05:55:57.596Z,0.43
2022-12-01T05:58:26.997Z,0.36
2022-12-01T06:00:55.279Z,0.22
2022-12-01T06:03:23.321Z,0.20
2022-12-01T06:05:51.737Z,0.17
2022-12-01T06:08:21.795Z,0.12
2022-12-01T06:10:51.180Z,-0.01
2022-12-01T06:13:19.193Z,-0.05
2022-12-01T06:15:57.215Z,-0.09
2022-12-01T06:18:27.261Z,-0.15
2022-12-01T06:20:59.005Z,-0.39
2022-12-01T06:23:31.423Z,-0.44
2022-12-01T06:25:59.738Z,-0.53
2022-12-01T06:28:28.759Z,-0.44
2022-12-01T06:31:03.216Z,-0.46
2022-12-01T06:33:32.008Z,-0.53
2022-12-01T06:36:01.743Z,-0.53
2022-12-01T06:38:32.878Z,-0.52
2022-12-01T06:41:01.167Z,-0.61
2022-12-01T06:43:29.119Z,-0.64
2022-12-01T06:46:02.045Z,-0.54
2022-12-01T06:48:32.679Z,-0.44
2022-12-01T06:51:05.057Z,-0.50
2022-12-01T06:53:34.102Z,-0.53
2022-12-01T06:56:02.226Z,-0.60
2022-12-01T06:58:30.594Z,-0.61
2022-12-01T07:01:00.351Z,-0.59
2022-12-01T07:03:28.445Z,-0.53
2022-12-01T07:05:58.777Z,-0.40
2022-12-01T07:08:27.309Z,-0.33
2022-12-01T07:11:00.502Z,-0.21
2022-12-01T07:13:33.690Z,-0.15
2022-12-01T07:16:04.117Z,-0.12
2022-12-01T07:18:33.043Z,-0.13
2022-12-01T07:21:02.587Z,-0.04
2022-12-01T07:23:36.315Z,-0.04
2022-12-01T07:26:06.925Z,-0.06
2022-12-01T07:28:35.193Z,-0.30
2022-12-01T07:31:07.615Z,-0.30
2022-12-01T07:33:36.472Z,-0.28
2022-12-01T07:36:05.771Z,-0.05
2022-12-01T07:38:35.543Z,0.13
2022-12-01T07:41:04.653Z,0.20
2022-12-01T07:43:36.183Z,0.16
2022-12-01T07:46:14.686Z,0.10
2022-12-01T07:48:47.031Z,0.15
2022-12-01T07:51:17.293Z,0.19
2022-12-01T07:53:46.283Z,0.23
2022-12-01T07:56:17.046Z,0.27
2022-12-01T07:58:45.530Z,0.33
2022-12-01T08:01:17.170Z,0.40
2022-12-01T08:03:46.268Z,0.49
2022-12-01T08:06:14.335Z,0.54
2022-12-01T08:08:42.880Z,0.58
2022-12-01T08:11:13.924Z,0.67
2022-12-01T08:13:46.161Z,0.78
2022-12-01T08:16:19.277Z,0.91
2022-12-01T08:18:47.474Z,0.98
2022-12-01T08:21:18.756Z,1.12
2022-12-01T08:23:47.302Z,1.30
2022-12-01T08:26:17.347Z,1.46
2022-12-01T08:28:46.843Z,1.63
2022-12-01T08:31:18.799Z,1.66
2022-12-01T08:33:47.442Z,1.74
2022-12-01T08:36:15.756Z,1.88
2022-12-01T08:38:45.734Z,1.88
2022-12-01T08:41:14.719Z,2.08
2022-12-01T08:44:00.966Z,2.21
2022-12-01T08:46:33.620Z,2.37
2022-12-01T08:49:02.222Z,2.50
2022-12-01T08:51:30.672Z,2.56
2022-12-01T08:54:00.385Z,2.60
2022-12-01T08:56:30.673Z,2.71
2022-12-01T08:58:59.046Z,2.77
2022-12-01T09:01:27.186Z,2.84
2022-12-01T09:04:08.695Z,2.95
2022-12-01T09:06:41.242Z,3.15
2022-12-01T09:09:14.545Z,3.29
2022-12-01T09:11:43.900Z,3.43
2022-12-01T09:14:12.449Z,3.53
2022-12-01T09:16:41.040Z,3.62
2022-12-01T09:19:13.063Z,3.77
2022-12-01T09:21:42.781Z,3.88
2022-12-01T09:24:12.436Z,3.98
2022-12-01T09:26:40.509Z,4.06
2022-12-01T09:29:10.891Z,4.16
2022-12-01T09:31:40.545Z,4.22
2022-12-01T09:34:13.154Z,4.29
2022-12-01T09:36:41.702Z,4.43
2022-12-01T09:39:13.132Z,4.59
2022-12-01T09:41:46.301Z,4.90
2022-12-01T09:44:22.023Z,5.10
2022-12-01T09:46:54.881Z,5.32
2022-12-01T09:49:32.296Z,5.57
2022-12-01T09:52:01.375Z,5.59
2022-12-01T09:54:30.451Z,5.55
2022-12-01T09:57:00.375Z,5.59
2022-12-01T09:59:34.073Z,5.59
2022-12-01T10:02:04.464Z,5.70
2022-12-01T10:04:37.490Z,5.93
2022-12-01T10:07:12.445Z,6.04
2022-12-01T10:09:48.862Z,6.05
2022-12-01T10:12:19.428Z,5.98
2022-12-01T10:14:49.490Z,6.00
2022-12-01T10:17:29.306Z,5.97
2022-12-01T10:20:04.252Z,5.98
2022-12-01T10:23:10.006Z,6.01
2022-12-01T10:25:46.595Z,6.17
2022-12-01T10:28:36.294Z,6.26
2022-12-01T10:31:12.552Z,6.29
2022-12-01T10:33:47.779Z,6.42
2022-12-01T10:36:17.077Z,6.52
2022-12-01T10:38:45.091Z,6.53
2022-12-01T10:41:16.409Z,6.62
2022-12-01T10:43:47.172Z,6.61
2022-12-01T10:46:23.771Z,6.48
2022-12-01T10:48:56.847Z,6.52
2022-12-01T10:51:27.974Z,6.53
2022-12-01T10:54:00.922Z,6.61
2022-12-01T10:56:29.352Z,6.76
2022-12-01T10:58:59.711Z,7.05
2022-12-01T11:01:31.043Z,7.31
2022-12-01T11:04:14.568Z,7.55
2022-12-01T11:06:50.937Z,7.80
2022-12-01T11:09:26.213Z,8.01
2022-12-01T11:11:59.426Z,8.00
2022-12-01T11:14:36.520Z,8.04
2022-12-01T11:17:18.045Z,8.35
2022-12-01T11:19:46.268Z,8.55
2022-12-01T11:22:23.204Z,8.52
2022-12-01T11:24:59.612Z,8.70
2022-12-01T11:27:30.948Z,8.65
2022-12-01T11:30:02.822Z,8.48
2022-12-01T11:32:35.093Z,8.21
2022-12-01T11:35:07.160Z,7.98
2022-12-01T11:37:39.550Z,7.94
2022-12-01T11:40:14.962Z,7.94
2022-12-01T11:42:47.774Z,7.89
2022-12-01T11:45:27.284Z,8.05
2022-12-01T11:48:05.042Z,8.15
2022-12-01T11:50:35.513Z,8.01
2022-12-01T11:53:05.714Z,8.05
2022-12-01T11:55:34.245Z,7.90
2022-12-01T11:58:05.246Z,7.97
2022-12-01T12:00:44.920Z,8.17
2022-12-01T12:03:22.598Z,8.40
2022-12-01T12:06:31.798Z,8.40
2022-12-01T12:09:25.820Z,8.15
2022-12-01T12:12:08.370Z,8.13
2022-12-01T12:14:48.620Z,8.32
2022-12-01T12:17:29.386Z,8.46
2022-12-01T12:20:09.617Z,8.40
2022-12-01T12:22:55.199Z,8.49
2022-12-01T12:25:31.783Z,8.58
2022-12-01T12:28:07.680Z,8.70
2022-12-01T12:30:43.870Z,8.80
2022-12-01T12:33:38.466Z,8.62
2022-12-01T12:36:16.350Z,8.51
2022-12-01T12:38:58.314Z,8.53
2022-12-01T12:41:32.989Z,8.65
2022-12-01T12:44:35.384Z,8.52
2022-12-01T12:47:10.637Z,8.59
2022-12-01T12:49:45.545Z,8.49
2022-12-01T12:52:17.249Z,8.72
2022-12-01T12:54:51.963Z,8.84
2022-12-01T12:57:28.617Z,8.90
2022-12-01T13:00:01.458Z,8.68
2022-12-01T13:02:36.265Z,8.61
2022-12-01T13:05:10.430Z,8.65
2022-12-01T13:07:44.256Z,8.69
2022-12-01T13:10:23.216Z,8.68
2022-12-01T13:12:58.195Z,8.66
2022-12-01T13:15:30.732Z,8.79
2022-12-01T13:18:04.706Z,8.77
2022-12-01T13:20:35.166Z,8.68
2022-12-01T13:23:04.334Z,8.53
2022-12-01T13:25:36.155Z,8.46
2022-12-01T13:28:06.750Z,8.18
2022-12-01T13:30:36.179Z,8.28
2022-12-01T13:33:06.708Z,8.11
2022-12-01T13:35:37.493Z,7.98
2022-12-01T13:38:24.896Z,8.04
2022-12-01T13:41:11.584Z,7.84
2022-12-01T13:43:54.490Z,7.82
2022-12-01T13:46:27.764Z,7.55
2022-12-01T13:48:58.079Z,7.58
2022-12-01T13:51:27.054Z,7.41
2022-12-01T13:54:05.507Z,7.36
2022-12-01T13:56:41.153Z,7.19
2022-12-01T13:59:40.815Z,7.14
2022-12-01T14:02:18.375Z,7.10
2022-12-01T14:04:48.336Z,6.86
2022-12-01T14:07:35.836Z,6.75
2022-12-01T14:10:26.397Z,6.69
2022-12-01T14:12:59.405Z,6.62
2022-12-01T14:15:40.427Z,6.68
2022-12-01T14:18:23.861Z,6.57
2022-12-01T14:20:52.219Z,6.52
2022-12-01T14:23:29.294Z,6.48
2022-12-01T14:26:12.856Z,6.41
2022-12-01T14:29:10.984Z,6.31
2022-12-01T14:32:19.468Z,6.13
2022-12-01T14:34:52.697Z,5.98
2022-12-01T14:37:23.021Z,5.90
2022-12-01T14:39:57.328Z,5.80
2022-12-01T14:42:48.490Z,5.87
2022-12-01T14:45:23.038Z,5.84
2022-12-01T14:47:58.236Z,5.71
2022-12-01T14:50:35.461Z,5.73
2022-12-01T14:53:10.373Z,5.76
2022-12-01T14:55:41.720Z,5.70
2022-12-01T14:58:16.698Z,5.67
2022-12-01T15:00:57.974Z,5.55
2022-12-01T15:03:32.006Z,5.00
2022-12-01T15:06:01.717Z,4.64
2022-12-01T15:09:04.109Z,4.56
2022-12-01T15:11:26.068Z,4.35
2022-12-01T15:13:55.613Z,4.11
2022-12-01T15:16:27.501Z,3.99
2022-12-01T15:18:57.893Z,3.86
2022-12-01T15:21:29.396Z,3.78
2022-12-01T15:24:00.897Z,3.64
2022-12-01T15:26:32.055Z,3.49
2022-12-01T15:29:14.627Z,3.44
2022-12-01T15:31:44.063Z,3.46
2022-12-01T15:34:17.285Z,3.49
2022-12-01T15:36:48.538Z,3.52
2022-12-01T15:39:18.221Z,3.53
2022-12-01T15:41:53.813Z,3.53
2022-12-01T15:44:27.327Z,3.60
2022-12-01T15:46:55.809Z,3.69
2022-12-01T15:49:29.705Z,3.81
2022-12-01T15:52:12.515Z,3.80
2022-12-01T15:54:41.046Z,3.87
2022-12-01T15:57:09.387Z,3.93
2022-12-01T15:59:45.072Z,3.97
2022-12-01T16:02:27.435Z,4.02
2022-12-01T16:05:05.527Z,3.91
2022-12-01T16:08:12.126Z,3.84
2022-12-01T16:10:30.756Z,3.83
2022-12-01T16:13:47.713Z,3.81
2022-12-01T16:16:41.040Z,3.90
2022-12-01T16:19:28.176Z,3.88
2022-12-01T16:22:00.473Z,3.84
2022-12-01T16:24:32.442Z,3.84
2022-12-01T16:27:03.397Z,3.80
2022-12-01T16:29:35.672Z,3.66
2022-12-01T16:32:20.152Z,3.50
2022-12-01T16:34:50.214Z,3.13
2022-12-01T16:37:18.780Z,2.87
2022-12-01T16:39:48.749Z,2.67
2022-12-01T16:42:18.828Z,2.54
2022-12-01T16:44:48.721Z,2.42
2022-12-01T16:47:20.407Z,2.33
2022-12-01T16:49:48.826Z,2.25
2022-12-01T16:52:43.546Z,2.25
2022-12-01T16:55:26.013Z,2.23
2022-12-01T16:57:55.456Z,2.19
2022-12-01T17:00:24.007Z,2.21
2022-12-01T17:02:53.725Z,2.52
2022-12-01T17:05:22.084Z,2.79
2022-12-01T17:07:50.425Z,2.50
2022-12-01T17:10:20.170Z,2.43
2022-12-01T17:12:48.204Z,2.54
2022-12-01T17:15:16.407Z,2.65
2022-12-01T17:17:44.563Z,2.70
2022-12-01T17:20:13.204Z,2.67
2022-12-01T17:22:41.273Z,2.65
2022-12-01T17:25:10.877Z,2.79
2022-12-01T17:27:42.004Z,2.80
2022-12-01T17:30:11.017Z,2.95
2022-12-01T17:32:39.618Z,2.98
2022-12-01T17:35:08.620Z,2.98
2022-12-01T17:37:38.669Z,2.79
2022-12-01T17:40:08.793Z,2.79
2022-12-01T17:42:37.180Z,2.84
2022-12-01T17:45:07.925Z,2.90
2022-12-01T17:47:36.154Z,3.00
2022-12-01T17:50:04.557Z,2.98
2022-12-01T17:52:32.758Z,2.83
2022-12-01T17:55:00.919Z,2.76
2022-12-01T17:57:29.080Z,2.71
2022-12-01T17:59:57.264Z,2.56
2022-12-01T18:02:26.674Z,2.56
2022-12-01T18:04:55.058Z,2.54
2022-12-01T18:07:23.380Z,2.47
2022-12-01T18:09:51.562Z,2.43
2022-12-01T18:12:19.828Z,2.43
2022-12-01T18:14:48.045Z,2.35
2022-12-01T18:20:46.558Z,2.15
2022-12-01T18:23:14.802Z,2.09
2022-12-01T18:25:42.937Z,1.94
2022-12-01T18:28:11.474Z,1.89
2022-12-01T18:46:40.413Z,1.57
2022-12-01T18:53:23.142Z,1.51
2022-12-01T18:55:51.424Z,1.51
2022-12-01T18:58:19.477Z,1.47
2022-12-01T19:00:47.635Z,1.43
2022-12-01T19:03:17.192Z,1.36
2022-12-01T19:05:45.302Z,1.23
2022-12-01T19:08:13.435Z,1.16
2022-12-01T19:10:41.605Z,1.12
2022-12-01T19:13:09.769Z,1.15
2022-12-01T19:15:38.570Z,1.09
2022-12-01T19:18:06.731Z,1.11
2022-12-01T19:20:39.766Z,1.18
2022-12-01T19:23:07.817Z,1.18
2022-12-01T19:25:38.915Z,1.03
2022-12-01T19:28:07.148Z,1.02
2022-12-01T19:30:35.609Z,1.08
2022-12-01T19:33:03.790Z,0.93
2022-12-01T19:35:32.825Z,0.93
2022-12-01T19:38:02.272Z,0.85
2022-12-01T19:40:39.124Z,0.80
2022-12-01T19:43:07.388Z,0.74
2022-12-01T19:45:38.691Z,0.81
2022-12-01T19:48:07.826Z,0.88
2022-12-01T19:50:36.698Z,0.88
2022-12-01T19:53:06.263Z,0.87
2022-12-01T19:55:34.671Z,0.96
2022-12-01T19:58:04.122Z,1.02
2022-12-01T20:00:32.775Z,1.05
2022-12-01T20:03:01.806Z,1.05
2022-12-01T20:05:29.941Z,1.11
2022-12-01T20:07:58.498Z,1.16
2022-12-01T20:10:28.094Z,1.18
2022-12-01T20:12:56.276Z,1.29
2022-12-01T20:15:24.547Z,1.33
2022-12-01T20:17:53.926Z,1.23
2022-12-01T20:20:26.126Z,1.19
2022-12-01T20:22:54.404Z,1.19
2022-12-01T20:25:22.835Z,1.18
2022-12-01T20:27:52.513Z,1.12
2022-12-01T20:30:20.789Z,1.09
2022-12-01T20:32:49.978Z,1.03
2022-12-01T20:35:20.294Z,1.02
2022-12-01T20:37:52.823Z,0.95
2022-12-01T20:40:22.436Z,0.91
2022-12-01T20:42:52.544Z,0.91
2022-12-01T20:45:21.114Z,0.91
2022-12-01T20:47:51.888Z,0.91
2022-12-01T20:50:20.298Z,0.74
2022-12-01T20:52:48.585Z,0.58
2022-12-01T20:55:16.926Z,0.56
2022-12-01T20:57:45.638Z,0.54
2022-12-01T21:00:18.670Z,0.58
2022-12-01T21:02:48.160Z,0.57
2022-12-01T21:05:16.437Z,0.54
2022-12-01T21:07:44.951Z,0.54
2022-12-01T21:10:18.483Z,0.43
2022-12-01T21:13:09.447Z,0.39
2022-12-01T21:15:52.179Z,0.29
2022-12-01T21:18:23.430Z,0.20
2022-12-01T21:20:57.748Z,0.09
2022-12-01T21:23:28.328Z,0.02
2022-12-01T21:25:57.258Z,-0.02
2022-12-01T21:28:27.109Z,-0.06
2022-12-01T21:31:01.367Z,-0.12
2022-12-01T21:33:33.367Z,-0.08
2022-12-01T21:36:03.221Z,-0.08
2022-12-01T21:38:33.239Z,-0.06
2022-12-01T21:41:02.884Z,-0.08
2022-12-01T21:43:37.945Z,-0.09
2022-12-01T21:46:16.276Z,-0.08
2022-12-01T21:48:46.110Z,-0.06
2022-12-01T21:51:20.127Z,-0.12
2022-12-01T21:53:49.203Z,-0.13
2022-12-01T21:56:22.156Z,-0.16
2022-12-01T21:58:52.893Z,-0.22
2022-12-01T22:01:28.389Z,-0.23
2022-12-01T22:04:01.790Z,-0.22
2022-12-01T22:06:37.037Z,-0.22
2022-12-01T22:09:20.715Z,-0.29
2022-12-01T22:11:52.670Z,-0.34
2022-12-01T22:14:23.030Z,-0.34
2022-12-01T22:16:55.990Z,-0.40
2022-12-01T22:19:28.852Z,-0.46
2022-12-01T22:22:01.890Z,-0.53
2022-12-01T22:24:45.009Z,-0.52
2022-12-01T22:27:27.334Z,-0.44
2022-12-01T22:29:59.166Z,-0.48
2022-12-01T22:32:53.368Z,-0.54
2022-12-01T22:35:30.137Z,-0.59
2022-12-01T22:38:20.203Z,-0.56
2022-12-01T22:40:56.063Z,-0.57
2022-12-01T22:43:31.344Z,-0.53
2022-12-01T22:46:11.610Z,-0.48
2022-12-01T22:48:46.115Z,-0.53
2022-12-01T22:51:23.891Z,-0.63
2022-12-01T22:53:58.729Z,-0.60
2022-12-01T22:56:40.547Z,-0.70
2022-12-01T22:59:16.231Z,-0.83
2022-12-01T23:01:50.180Z,-0.84
2022-12-01T23:04:27.375Z,-0.94
2022-12-01T23:06:59.678Z,-1.04
2022-12-01T23:09:33.330Z,-0.99
2022-12-01T23:12:07.106Z,-0.97
2022-12-01T23:14:35.785Z,-0.92
2022-12-01T23:17:08.286Z,-0.77
2022-12-01T23:19:37.706Z,-0.80
2022-12-01T23:22:05.865Z,-0.77
2022-12-01T23:24:35.097Z,-0.80
2022-12-01T23:27:03.252Z,-0.74
2022-12-01T23:29:32.064Z,-0.71
2022-12-01T23:32:00.259Z,-0.64
2022-12-01T23:34:29.403Z,-0.54
2022-12-01T23:36:58.813Z,-0.54
2022-12-01T23:39:31.917Z,-0.50
2022-12-01T23:42:00.339Z,-0.48
2022-12-01T23:44:45.797Z,-0.50
2022-12-01T23:47:19.023Z,-0.49
2022-12-01T23:49:48.264Z,-0.46
2022-12-01T23:52:21.521Z,-0.48
2022-12-01T23:54:50.065Z,-0.46
2022-12-01T23:57:23.853Z,-0.43
2022-12-01T23:59:56.003Z,-0.36
